Gifford, South Carolina
Current Conditions -  °F | °C
As of 11:15 AM on Monday 24 Nov 2014 (Local Time) from KAQX Reporting Station
Light Rain Light Rain  
Wind Chill: 70°   Ceiling: 1300
Heat Index: 70°   Visibility: 5mi
Dew Point: 68°   Wind: 3mph
Humidity: 94%   Direction: NA
Pressure: 29.86"   Gusts: NA
Location:  32.86°N, 81.24°W
Report Text: KAQX 241615Z AUTO VRB03KT 5SM -RA FEW004 SCT009 OVC013 21/20 A2986 RMK AO2
Loading
Personal Weather Stations






























Interactive Weather Map New forecast layout! Learn more

10-Day Weather Forecast

Advertisements
Track Severe Weather on mobile